Time;durP1;ratioP1;P1;durP2;ratioP2;P2;SDS_P1;SDS_P2;PMS_P1;PMS_P2;Temp;Humidity;BMP_temperature;BMP_pressure;BME280_temperature;BME280_humidity;BME280_pressure;Samples;Min_cycle;Max_cycle;Signal;HPM_P1;HPM_P2
2023/08/10 00:00:18;;;;;;;8.68;3.05;;;;;;;;;;5082320;28;20048;-80
2023/08/10 00:02:44;;;;;;;8.68;3.20;;;;;;;;;;5072983;28;20041;-80
2023/08/10 00:05:12;;;;;;;7.30;2.83;;;;;;;;;;5083587;28;20525;-80
2023/08/10 00:07:38;;;;;;;10.70;3.20;;;;;;;;;;5073098;28;20048;-80
2023/08/10 00:10:08;;;;;;;9.20;3.45;;;;;;;;;;5054417;28;20451;-81
2023/08/10 00:12:34;;;;;;;9.40;3.25;;;;;;;;;;5073239;28;20052;-80
2023/08/10 00:15:00;;;;;;;9.05;2.80;;;;;;;;;;5072665;28;20047;-80
2023/08/10 00:17:26;;;;;;;10.35;3.08;;;;;;;;;;5054804;28;20501;-80
2023/08/10 00:19:53;;;;;;;10.02;3.25;;;;;;;;;;5089043;28;20055;-80
2023/08/10 00:22:19;;;;;;;13.32;3.50;;;;;;;;;;5072821;28;20516;-81
2023/08/10 00:24:45;;;;;;;9.02;3.35;;;;;;;;;;5080586;28;20040;-80
2023/08/10 00:27:11;;;;;;;9.40;3.30;;;;;;;;;;5083968;28;20042;-80
2023/08/10 00:29:37;;;;;;;10.02;3.10;;;;;;;;;;5084259;28;20485;-80
2023/08/10 00:32:03;;;;;;;11.52;3.30;;;;;;;;;;5070996;28;20053;-81
2023/08/10 00:34:29;;;;;;;10.70;3.17;;;;;;;;;;5071084;28;20041;-80
2023/08/10 00:36:55;;;;;;;6.05;2.70;;;;;;;;;;5063593;28;20040;-80
2023/08/10 00:39:21;;;;;;;7.45;2.95;;;;;;;;;;5072503;28;20124;-80
2023/08/10 00:41:48;;;;;;;7.30;2.78;;;;;;;;;;5076610;28;20043;-80
2023/08/10 00:44:16;;;;;;;9.07;3.00;;;;;;;;;;5077853;28;20040;-80
2023/08/10 00:46:42;;;;;;;7.85;2.72;;;;;;;;;;5087444;28;20132;-80
2023/08/10 00:49:08;;;;;;;15.10;2.95;;;;;;;;;;5076829;28;20040;-80
2023/08/10 00:51:35;;;;;;;11.07;3.03;;;;;;;;;;5072139;28;20066;-80
2023/08/10 00:54:01;;;;;;;9.27;3.40;;;;;;;;;;5078690;28;20474;-80
2023/08/10 00:56:27;;;;;;;7.63;3.00;;;;;;;;;;5096455;28;20127;-81
2023/08/10 00:58:53;;;;;;;9.70;2.92;;;;;;;;;;5096691;28;20376;-80
2023/08/10 01:01:19;;;;;;;7.82;2.90;;;;;;;;;;5096099;28;20048;-80
2023/08/10 01:03:45;;;;;;;8.52;3.05;;;;;;;;;;5082516;28;20122;-80
2023/08/10 01:06:15;;;;;;;9.07;2.90;;;;;;;;;;5057690;28;20430;-81
2023/08/10 01:08:50;;;;;;;8.30;3.10;;;;;;;;;;5076308;28;20044;-80
2023/08/10 01:11:23;;;;;;;8.75;3.45;;;;;;;;;;5075858;28;20431;-80
2023/08/10 01:14:03;;;;;;;10.15;3.40;;;;;;;;;;5076495;28;20439;-80
2023/08/10 01:16:29;;;;;;;10.55;3.22;;;;;;;;;;5075783;28;20051;-80
2023/08/10 01:18:56;;;;;;;8.10;3.03;;;;;;;;;;5062382;28;20040;-80
2023/08/10 01:21:38;;;;;;;7.88;2.90;;;;;;;;;;5093019;28;20090;-80
2023/08/10 01:24:11;;;;;;;10.02;2.95;;;;;;;;;;5087773;28;20040;-80
2023/08/10 01:26:37;;;;;;;8.80;2.97;;;;;;;;;;5079154;28;20048;-80
2023/08/10 01:29:03;;;;;;;8.95;2.83;;;;;;;;;;5080505;28;20044;-81
2023/08/10 01:31:29;;;;;;;9.32;3.00;;;;;;;;;;5075434;28;20623;-81
2023/08/10 01:33:55;;;;;;;11.20;3.28;;;;;;;;;;5078353;28;20056;-80
2023/08/10 01:36:21;;;;;;;7.78;3.10;;;;;;;;;;5093683;28;20130;-80
2023/08/10 01:38:48;;;;;;;6.70;2.97;;;;;;;;;;5088201;28;20043;-80
2023/08/10 01:41:14;;;;;;;6.93;2.70;;;;;;;;;;5078472;28;20346;-80
2023/08/10 01:43:40;;;;;;;11.25;3.20;;;;;;;;;;5056978;28;20495;-80
2023/08/10 01:46:07;;;;;;;9.15;2.80;;;;;;;;;;5066366;28;20040;-80
2023/08/10 01:48:36;;;;;;;6.32;2.72;;;;;;;;;;5064471;28;20051;-80
2023/08/10 01:51:04;;;;;;;9.73;3.05;;;;;;;;;;5074768;28;20205;-80
2023/08/10 01:53:33;;;;;;;8.18;2.75;;;;;;;;;;5095562;28;20040;-80
2023/08/10 01:55:59;;;;;;;8.02;3.00;;;;;;;;;;5094786;28;20051;-80
2023/08/10 01:58:25;;;;;;;10.18;3.53;;;;;;;;;;5095717;28;20082;-80
2023/08/10 02:00:51;;;;;;;12.15;3.03;;;;;;;;;;5095188;28;20048;-81
2023/08/10 02:03:18;;;;;;;6.30;2.75;;;;;;;;;;5094205;28;20244;-81
2023/08/10 02:05:45;;;;;;;6.40;2.80;;;;;;;;;;5043119;28;20052;-81
2023/08/10 02:08:12;;;;;;;9.30;2.88;;;;;;;;;;5075060;28;20047;-81
2023/08/10 02:10:38;;;;;;;11.38;3.05;;;;;;;;;;5083428;28;20096;-81
2023/08/10 02:13:04;;;;;;;7.80;2.88;;;;;;;;;;5076780;28;20050;-79
2023/08/10 02:15:30;;;;;;;7.32;2.60;;;;;;;;;;5069292;28;20044;-80
2023/08/10 02:17:56;;;;;;;7.85;2.90;;;;;;;;;;5058825;28;20066;-80
2023/08/10 02:20:22;;;;;;;7.50;2.80;;;;;;;;;;5070672;28;20048;-80
2023/08/10 02:22:50;;;;;;;9.18;2.50;;;;;;;;;;5060047;28;20115;-79
2023/08/10 02:25:17;;;;;;;10.23;3.05;;;;;;;;;;5075198;28;20051;-81
2023/08/10 02:27:44;;;;;;;7.05;2.72;;;;;;;;;;5080421;28;20102;-82
2023/08/10 02:30:11;;;;;;;8.90;3.15;;;;;;;;;;5091676;28;20083;-81
2023/08/10 02:32:37;;;;;;;7.05;2.72;;;;;;;;;;5094862;28;20039;-80
2023/08/10 02:35:08;;;;;;;7.90;2.97;;;;;;;;;;5093355;28;20052;-80
2023/08/10 02:37:35;;;;;;;7.85;3.10;;;;;;;;;;5093176;28;20048;-80
2023/08/10 02:40:03;;;;;;;7.35;2.95;;;;;;;;;;5092676;28;20044;-81
2023/08/10 02:42:29;;;;;;;8.50;3.08;;;;;;;;;;5094159;28;20040;-80
2023/08/10 02:44:55;;;;;;;8.88;3.00;;;;;;;;;;5076954;28;20048;-81
2023/08/10 02:47:21;;;;;;;10.38;2.90;;;;;;;;;;5088268;28;20419;-80
2023/08/10 02:49:47;;;;;;;8.50;3.03;;;;;;;;;;5080707;28;20040;-80
2023/08/10 02:52:14;;;;;;;9.75;3.17;;;;;;;;;;5093625;28;20097;-80
2023/08/10 02:54:40;;;;;;;9.73;3.40;;;;;;;;;;5083548;28;20047;-79
2023/08/10 02:57:06;;;;;;;6.95;3.05;;;;;;;;;;5054923;28;20056;-79
2023/08/10 02:59:32;;;;;;;7.93;3.30;;;;;;;;;;5077165;28;20090;-80
2023/08/10 03:01:58;;;;;;;10.63;3.50;;;;;;;;;;5065818;28;20074;-81
2023/08/10 03:04:24;;;;;;;8.52;3.88;;;;;;;;;;5071211;28;20091;-80
2023/08/10 03:06:51;;;;;;;10.05;3.50;;;;;;;;;;5075713;28;20125;-80
2023/08/10 03:09:17;;;;;;;9.68;3.40;;;;;;;;;;5074191;28;20075;-81
2023/08/10 03:11:43;;;;;;;6.25;3.30;;;;;;;;;;5075134;28;20043;-81
2023/08/10 03:14:09;;;;;;;7.78;3.38;;;;;;;;;;5075032;28;20128;-81
2023/08/10 03:16:35;;;;;;;9.32;3.40;;;;;;;;;;5093486;28;20117;-81
2023/08/10 03:19:01;;;;;;;11.70;3.70;;;;;;;;;;5092677;28;20044;-81
2023/08/10 03:21:27;;;;;;;9.70;3.50;;;;;;;;;;5105303;28;20040;-81
2023/08/10 03:23:53;;;;;;;10.45;3.80;;;;;;;;;;5093006;28;20044;-81
2023/08/10 03:26:20;;;;;;;6.25;3.25;;;;;;;;;;5120492;22;20116;-81
2023/08/10 03:28:46;;;;;;;10.50;3.70;;;;;;;;;;5110719;28;20047;-80
2023/08/10 03:31:13;;;;;;;10.20;3.75;;;;;;;;;;5054622;28;20101;-81
2023/08/10 03:33:40;;;;;;;9.98;3.70;;;;;;;;;;5075216;28;20123;-79
2023/08/10 03:36:06;;;;;;;7.03;3.67;;;;;;;;;;5038453;28;20048;-80
2023/08/10 03:38:32;;;;;;;7.00;3.38;;;;;;;;;;5092305;28;20047;-80
2023/08/10 03:40:58;;;;;;;7.28;3.35;;;;;;;;;;5064374;28;20536;-81
2023/08/10 03:43:25;;;;;;;10.13;3.40;;;;;;;;;;5081595;28;20054;-80
2023/08/10 03:45:51;;;;;;;6.80;3.45;;;;;;;;;;5055822;28;20084;-81
2023/08/10 03:48:17;;;;;;;8.68;3.60;;;;;;;;;;5056519;28;20039;-80
2023/08/10 03:50:43;;;;;;;9.98;3.38;;;;;;;;;;5066074;28;20049;-80
2023/08/10 03:53:09;;;;;;;11.15;3.78;;;;;;;;;;5055381;28;20037;-80
2023/08/10 03:55:36;;;;;;;10.52;3.50;;;;;;;;;;5070170;28;20048;-81
2023/08/10 03:58:02;;;;;;;8.10;3.75;;;;;;;;;;5093498;28;20104;-80
2023/08/10 04:00:28;;;;;;;10.15;3.72;;;;;;;;;;5072074;28;20052;-80
2023/08/10 04:02:54;;;;;;;8.85;3.80;;;;;;;;;;5073976;28;20044;-80
2023/08/10 04:05:21;;;;;;;8.77;3.63;;;;;;;;;;5073031;28;20044;-80
2023/08/10 04:07:47;;;;;;;8.98;3.63;;;;;;;;;;5090213;28;20079;-81
2023/08/10 04:10:14;;;;;;;7.55;3.45;;;;;;;;;;5092386;28;20123;-81
2023/08/10 04:12:41;;;;;;;8.02;3.42;;;;;;;;;;5056611;28;20044;-79
2023/08/10 04:15:07;;;;;;;9.88;3.75;;;;;;;;;;5054896;28;20401;-80
2023/08/10 04:17:33;;;;;;;9.10;3.30;;;;;;;;;;5059618;28;20045;-80
2023/08/10 04:19:59;;;;;;;8.80;3.60;;;;;;;;;;5072509;28;20503;-80
2023/08/10 04:22:25;;;;;;;6.30;3.53;;;;;;;;;;5082380;28;20178;-80
2023/08/10 04:24:52;;;;;;;11.27;3.72;;;;;;;;;;5073861;28;20119;-81
2023/08/10 04:27:18;;;;;;;7.95;3.90;;;;;;;;;;5072542;28;20059;-80
2023/08/10 04:29:45;;;;;;;9.95;3.42;;;;;;;;;;5072603;28;20408;-80
2023/08/10 04:32:12;;;;;;;6.97;4.00;;;;;;;;;;5082951;28;20048;-81
2023/08/10 04:34:39;;;;;;;9.02;3.85;;;;;;;;;;5072830;28;20124;-81
2023/08/10 04:37:05;;;;;;;8.52;3.60;;;;;;;;;;5072590;28;20056;-80
2023/08/10 04:39:32;;;;;;;9.23;4.10;;;;;;;;;;5078111;28;20043;-81
2023/08/10 04:41:58;;;;;;;10.65;3.83;;;;;;;;;;5090752;28;20093;-81
2023/08/10 04:44:25;;;;;;;8.90;4.00;;;;;;;;;;5063091;28;20045;-80
2023/08/10 04:46:51;;;;;;;7.25;3.97;;;;;;;;;;5054512;28;20048;-81
2023/08/10 04:49:17;;;;;;;12.55;4.00;;;;;;;;;;5089398;28;20152;-81
2023/08/10 04:51:43;;;;;;;8.43;3.83;;;;;;;;;;5087272;28;20037;-81
2023/08/10 04:54:10;;;;;;;6.80;3.53;;;;;;;;;;5085477;28;20119;-81
2023/08/10 04:56:36;;;;;;;6.35;3.67;;;;;;;;;;5075397;28;20492;-81
2023/08/10 04:59:03;;;;;;;9.02;4.05;;;;;;;;;;5074827;28;20464;-81
2023/08/10 05:01:29;;;;;;;10.10;4.75;;;;;;;;;;5081189;28;20044;-81
2023/08/10 05:03:56;;;;;;;12.07;4.43;;;;;;;;;;5072948;28;20036;-81
2023/08/10 05:06:22;;;;;;;7.15;3.90;;;;;;;;;;5083574;28;20048;-81
2023/08/10 05:08:48;;;;;;;9.02;3.72;;;;;;;;;;5054649;28;20041;-81
2023/08/10 05:11:15;;;;;;;10.32;4.03;;;;;;;;;;5087860;28;20047;-81
2023/08/10 05:13:41;;;;;;;8.88;3.97;;;;;;;;;;5052778;28;20055;-80
2023/08/10 05:16:07;;;;;;;8.27;3.78;;;;;;;;;;5053203;28;20578;-80
2023/08/10 05:18:33;;;;;;;7.47;3.75;;;;;;;;;;5057593;28;20047;-80
2023/08/10 05:21:00;;;;;;;7.53;4.03;;;;;;;;;;5040616;28;20044;-75
2023/08/10 05:23:26;;;;;;;9.20;3.92;;;;;;;;;;5069252;28;20117;-74
2023/08/10 05:25:52;;;;;;;11.38;3.75;;;;;;;;;;5084457;28;20055;-74
2023/08/10 05:28:18;;;;;;;6.65;4.07;;;;;;;;;;5114841;28;20039;-74
2023/08/10 05:30:45;;;;;;;9.95;4.10;;;;;;;;;;5114977;28;20122;-73
2023/08/10 05:33:11;;;;;;;8.07;3.90;;;;;;;;;;5115630;28;20043;-74
2023/08/10 05:35:37;;;;;;;7.82;3.70;;;;;;;;;;5115099;28;20112;-74
2023/08/10 05:38:03;;;;;;;13.63;4.13;;;;;;;;;;5115928;28;20133;-74
2023/08/10 05:40:29;;;;;;;9.18;3.67;;;;;;;;;;5115229;28;20044;-73
2023/08/10 05:42:56;;;;;;;7.15;3.50;;;;;;;;;;5115601;28;20373;-74
2023/08/10 05:45:22;;;;;;;7.88;3.75;;;;;;;;;;5115285;28;20106;-73
2023/08/10 05:47:50;;;;;;;8.55;3.78;;;;;;;;;;5097024;28;20040;-72
2023/08/10 05:50:16;;;;;;;9.93;3.80;;;;;;;;;;5114914;28;20105;-73
2023/08/10 05:52:45;;;;;;;11.23;3.80;;;;;;;;;;5113195;28;20391;-73
2023/08/10 05:55:12;;;;;;;8.02;3.25;;;;;;;;;;5114131;28;20407;-73
2023/08/10 05:57:39;;;;;;;9.70;3.38;;;;;;;;;;5097229;28;20082;-73
2023/08/10 06:00:05;;;;;;;8.38;3.70;;;;;;;;;;5114936;28;20059;-74
2023/08/10 06:02:32;;;;;;;9.35;3.50;;;;;;;;;;5115239;28;20079;-74
2023/08/10 06:04:58;;;;;;;8.55;3.67;;;;;;;;;;5096574;28;20514;-74
2023/08/10 06:07:25;;;;;;;6.28;3.42;;;;;;;;;;5110237;28;20087;-74
2023/08/10 06:09:51;;;;;;;8.30;3.38;;;;;;;;;;5115415;28;20047;-74
2023/08/10 06:12:18;;;;;;;10.30;3.60;;;;;;;;;;5096657;28;20389;-73
2023/08/10 06:14:44;;;;;;;9.50;3.30;;;;;;;;;;5076487;28;20073;-74
2023/08/10 06:17:11;;;;;;;6.90;3.22;;;;;;;;;;5094217;28;20095;-74
2023/08/10 06:19:38;;;;;;;7.10;3.63;;;;;;;;;;5077633;28;20106;-74
2023/08/10 06:22:04;;;;;;;7.00;3.10;;;;;;;;;;5059356;28;20050;-74
2023/08/10 06:24:30;;;;;;;11.57;3.20;;;;;;;;;;5108757;28;20097;-74
2023/08/10 06:26:56;;;;;;;9.20;3.08;;;;;;;;;;5102663;28;20181;-74
2023/08/10 06:29:22;;;;;;;7.32;2.97;;;;;;;;;;5096797;28;20113;-75
2023/08/10 06:31:49;;;;;;;8.30;3.50;;;;;;;;;;5102277;28;20036;-74
2023/08/10 06:34:16;;;;;;;9.70;3.42;;;;;;;;;;5104389;28;20093;-73
2023/08/10 06:36:42;;;;;;;10.90;3.10;;;;;;;;;;5078452;28;20044;-73
2023/08/10 06:39:10;;;;;;;10.18;3.13;;;;;;;;;;5071436;28;20039;-74
2023/08/10 06:41:36;;;;;;;9.40;2.72;;;;;;;;;;5092595;28;20044;-73
2023/08/10 06:44:02;;;;;;;9.93;3.33;;;;;;;;;;5100545;28;20092;-74
2023/08/10 06:46:28;;;;;;;8.85;2.65;;;;;;;;;;5112372;28;20115;-73
2023/08/10 06:48:57;;;;;;;10.20;2.75;;;;;;;;;;5082084;28;20083;-72
2023/08/10 06:51:23;;;;;;;6.90;2.60;;;;;;;;;;5103900;28;20123;-72
2023/08/10 06:53:49;;;;;;;9.70;2.65;;;;;;;;;;5094298;28;20093;-73
2023/08/10 06:56:16;;;;;;;7.97;2.78;;;;;;;;;;5075358;28;20040;-74
2023/08/10 06:58:42;;;;;;;12.20;2.63;;;;;;;;;;5093893;28;20070;-74
2023/08/10 07:01:08;;;;;;;8.55;2.67;;;;;;;;;;5092410;28;20486;-73
2023/08/10 07:03:38;;;;;;;8.45;2.20;;;;;;;;;;5092325;28;20044;-73
2023/08/10 07:06:04;;;;;;;5.82;2.40;;;;;;;;;;5093130;28;20071;-74
2023/08/10 07:08:30;;;;;;;7.97;2.17;;;;;;;;;;5094616;28;20039;-73
2023/08/10 07:10:57;;;;;;;8.55;2.30;;;;;;;;;;5095853;28;20500;-74
2023/08/10 07:13:23;;;;;;;6.90;2.03;;;;;;;;;;5076281;28;20056;-74
2023/08/10 07:15:49;;;;;;;8.32;2.00;;;;;;;;;;5093865;28;20519;-75
2023/08/10 07:18:15;;;;;;;7.30;2.03;;;;;;;;;;5093183;28;20090;-73
2023/08/10 07:20:41;;;;;;;6.32;2.00;;;;;;;;;;5093133;28;20047;-74
2023/08/10 07:23:07;;;;;;;8.73;2.00;;;;;;;;;;5101983;28;20114;-73
2023/08/10 07:25:34;;;;;;;6.53;2.05;;;;;;;;;;5112768;28;20063;-73
2023/08/10 07:28:00;;;;;;;10.00;2.40;;;;;;;;;;5081945;28;20075;-74
2023/08/10 07:30:26;;;;;;;7.45;2.00;;;;;;;;;;5074704;28;20380;-73
2023/08/10 07:32:52;;;;;;;6.57;2.00;;;;;;;;;;5092936;28;20512;-73
2023/08/10 07:35:19;;;;;;;11.95;2.20;;;;;;;;;;5092401;28;20158;-75
2023/08/10 07:37:47;;;;;;;5.72;1.90;;;;;;;;;;5073599;28;20093;-74
2023/08/10 07:40:13;;;;;;;7.28;2.20;;;;;;;;;;5103566;28;20456;-75
2023/08/10 07:42:39;;;;;;;10.98;2.30;;;;;;;;;;5093679;28;20105;-74
2023/08/10 07:45:05;;;;;;;7.30;2.00;;;;;;;;;;5098479;28;20048;-75
2023/08/10 07:47:32;;;;;;;8.57;2.05;;;;;;;;;;5090441;28;20070;-74
2023/08/10 07:49:58;;;;;;;9.48;2.05;;;;;;;;;;5101902;27;20054;-75
2023/08/10 07:52:24;;;;;;;6.15;2.03;;;;;;;;;;5120038;27;20092;-75
2023/08/10 07:54:50;;;;;;;6.43;1.80;;;;;;;;;;5081165;28;20073;-75
2023/08/10 07:57:16;;;;;;;5.88;1.63;;;;;;;;;;5074678;28;20047;-74
2023/08/10 07:59:42;;;;;;;7.00;1.77;;;;;;;;;;5095271;28;20480;-74
2023/08/10 08:02:08;;;;;;;5.50;1.92;;;;;;;;;;5098614;28;20044;-75
2023/08/10 08:04:34;;;;;;;6.07;2.15;;;;;;;;;;5095883;28;20036;-74
2023/08/10 08:07:00;;;;;;;5.40;1.80;;;;;;;;;;5097040;28;20048;-74
2023/08/10 08:09:26;;;;;;;11.57;1.83;;;;;;;;;;5112905;28;20514;-75
2023/08/10 08:11:53;;;;;;;4.90;1.50;;;;;;;;;;5105119;28;20052;-75
2023/08/10 08:14:19;;;;;;;5.35;1.88;;;;;;;;;;5093663;28;20040;-75
2023/08/10 08:16:45;;;;;;;9.02;1.80;;;;;;;;;;5075360;28;20040;-74
2023/08/10 08:19:11;;;;;;;9.90;2.05;;;;;;;;;;5109070;28;20116;-74
2023/08/10 08:21:37;;;;;;;6.75;1.70;;;;;;;;;;5112459;28;20078;-74
2023/08/10 08:24:03;;;;;;;7.72;1.80;;;;;;;;;;5100422;28;20044;-76
2023/08/10 08:26:32;;;;;;;5.13;1.60;;;;;;;;;;5075706;28;20040;-74
2023/08/10 08:28:58;;;;;;;5.03;1.60;;;;;;;;;;5111255;28;20047;-74
2023/08/10 08:31:25;;;;;;;6.40;1.70;;;;;;;;;;5110805;28;20039;-74
2023/08/10 08:33:52;;;;;;;7.38;1.58;;;;;;;;;;5110688;28;20044;-74
2023/08/10 08:36:18;;;;;;;4.15;1.50;;;;;;;;;;5090980;28;20047;-74
2023/08/10 08:38:44;;;;;;;3.95;1.80;;;;;;;;;;5094796;28;20399;-74
2023/08/10 08:41:11;;;;;;;7.93;1.73;;;;;;;;;;5084013;28;20054;-74
2023/08/10 08:43:38;;;;;;;3.60;1.65;;;;;;;;;;5092945;28;20040;-74
2023/08/10 08:46:05;;;;;;;7.70;1.70;;;;;;;;;;5111920;28;20059;-73
2023/08/10 08:48:31;;;;;;;5.68;1.67;;;;;;;;;;5112645;28;20122;-74
2023/08/10 08:50:58;;;;;;;9.05;1.83;;;;;;;;;;5090733;28;20123;-75
2023/08/10 08:53:24;;;;;;;4.82;1.50;;;;;;;;;;5099946;28;20046;-75
2023/08/10 08:55:51;;;;;;;5.90;1.60;;;;;;;;;;5110525;28;20040;-74
2023/08/10 08:58:17;;;;;;;4.60;1.73;;;;;;;;;;5103387;28;20039;-74
2023/08/10 09:00:52;;;;;;;8.90;1.92;;;;;;;;;;5115618;28;20051;-74
2023/08/10 09:03:18;;;;;;;5.18;1.95;;;;;;;;;;5116406;28;20054;-75
2023/08/10 09:05:45;;;;;;;4.47;1.30;;;;;;;;;;5097638;28;20044;-74
2023/08/10 09:08:13;;;;;;;5.95;1.88;;;;;;;;;;5096071;28;20058;-74
2023/08/10 09:10:39;;;;;;;7.35;1.67;;;;;;;;;;5095662;28;20051;-75
2023/08/10 09:13:12;;;;;;;5.60;1.70;;;;;;;;;;5099856;28;20084;-74
2023/08/10 09:15:38;;;;;;;5.22;1.80;;;;;;;;;;5087480;28;20105;-74
2023/08/10 09:18:05;;;;;;;6.50;1.90;;;;;;;;;;5115299;28;20043;-74
2023/08/10 09:20:31;;;;;;;6.68;1.98;;;;;;;;;;5106110;28;21015;-74
2023/08/10 09:22:59;;;;;;;6.43;1.70;;;;;;;;;;5096321;28;20036;-75
2023/08/10 09:25:26;;;;;;;4.47;1.52;;;;;;;;;;5094957;28;20083;-74
2023/08/10 09:27:53;;;;;;;5.40;1.45;;;;;;;;;;5113679;28;20098;-75
2023/08/10 09:30:22;;;;;;;5.55;1.80;;;;;;;;;;5097769;28;20066;-75
2023/08/10 09:32:57;;;;;;;5.95;1.60;;;;;;;;;;5098224;28;20035;-75
2023/08/10 09:35:23;;;;;;;5.85;2.00;;;;;;;;;;5097297;28;20391;-75
2023/08/10 09:37:49;;;;;;;5.20;1.50;;;;;;;;;;5115206;28;20047;-74
2023/08/10 09:40:16;;;;;;;4.22;1.60;;;;;;;;;;5114495;28;20488;-75
2023/08/10 09:42:43;;;;;;;4.03;1.50;;;;;;;;;;5115341;28;20044;-75
2023/08/10 09:45:10;;;;;;;5.85;1.60;;;;;;;;;;5115225;28;20044;-75
2023/08/10 09:47:38;;;;;;;7.43;1.70;;;;;;;;;;5114948;28;20078;-75
2023/08/10 09:50:06;;;;;;;4.63;1.65;;;;;;;;;;5096765;28;20052;-75
2023/08/10 09:52:33;;;;;;;6.85;1.58;;;;;;;;;;5115065;28;20087;-75
2023/08/10 09:55:00;;;;;;;3.90;1.50;;;;;;;;;;5096633;28;20135;-74
2023/08/10 09:57:30;;;;;;;3.90;1.65;;;;;;;;;;5096208;28;20089;-75
2023/08/10 09:59:59;;;;;;;6.50;1.80;;;;;;;;;;5114986;28;20088;-75
2023/08/10 10:02:26;;;;;;;5.32;1.40;;;;;;;;;;5115239;28;20538;-74
2023/08/10 10:04:52;;;;;;;5.45;1.40;;;;;;;;;;5104428;28;20070;-74
2023/08/10 10:07:23;;;;;;;5.35;1.48;;;;;;;;;;5080537;28;20032;-71
2023/08/10 10:09:50;;;;;;;4.03;1.55;;;;;;;;;;5101373;28;20048;-71
2023/08/10 10:12:16;;;;;;;7.85;1.67;;;;;;;;;;5097652;28;20044;-74
2023/08/10 10:14:47;;;;;;;7.15;1.52;;;;;;;;;;5094476;28;20052;-74
2023/08/10 10:17:14;;;;;;;7.35;1.70;;;;;;;;;;5094101;28;20048;-74
2023/08/10 10:19:41;;;;;;;4.70;1.65;;;;;;;;;;5076202;28;20043;-73
2023/08/10 10:22:07;;;;;;;3.80;1.60;;;;;;;;;;5093424;28;20097;-74
2023/08/10 10:24:34;;;;;;;4.68;1.70;;;;;;;;;;5083702;28;20482;-74
2023/08/10 10:27:08;;;;;;;4.22;1.42;;;;;;;;;;5104189;28;20052;-75
2023/08/10 10:29:49;;;;;;;4.20;1.60;;;;;;;;;;5094302;28;20109;-74
2023/08/10 10:32:16;;;;;;;6.03;1.45;;;;;;;;;;5094405;28;20048;-75
2023/08/10 10:34:43;;;;;;;4.93;1.30;;;;;;;;;;5104091;28;20043;-75
2023/08/10 10:37:21;;;;;;;3.70;1.80;;;;;;;;;;5084430;28;20447;-74
2023/08/10 10:39:51;;;;;;;4.55;1.60;;;;;;;;;;5103985;28;20032;-75
2023/08/10 10:42:18;;;;;;;4.72;1.60;;;;;;;;;;5102523;28;20128;-75
2023/08/10 10:45:03;;;;;;;5.57;1.90;;;;;;;;;;5085477;28;20477;-75
2023/08/10 10:47:37;;;;;;;3.83;1.60;;;;;;;;;;5086138;28;20399;-75
2023/08/10 10:50:16;;;;;;;5.10;1.60;;;;;;;;;;5085122;28;20489;-75
2023/08/10 10:52:49;;;;;;;7.30;1.60;;;;;;;;;;5103292;28;20046;-75
2023/08/10 10:55:15;;;;;;;6.93;1.52;;;;;;;;;;5102288;28;20040;-75
2023/08/10 10:57:42;;;;;;;4.55;1.63;;;;;;;;;;5104067;28;20533;-75
2023/08/10 11:00:09;;;;;;;5.05;1.58;;;;;;;;;;5085451;28;20342;-75
2023/08/10 11:02:35;;;;;;;5.10;1.75;;;;;;;;;;5102512;28;20036;-74
2023/08/10 11:05:01;;;;;;;8.10;1.90;;;;;;;;;;5085729;28;20040;-75
2023/08/10 11:07:27;;;;;;;5.05;1.70;;;;;;;;;;5100150;28;20040;-73
2023/08/10 11:09:53;;;;;;;5.35;1.60;;;;;;;;;;5093357;28;20143;-74
2023/08/10 11:12:20;;;;;;;5.28;1.65;;;;;;;;;;5075538;28;20459;-75
2023/08/10 11:14:47;;;;;;;7.65;1.85;;;;;;;;;;5092631;28;20127;-75
2023/08/10 11:17:13;;;;;;;4.90;1.77;;;;;;;;;;5091917;28;20043;-74
2023/08/10 11:19:40;;;;;;;5.43;1.75;;;;;;;;;;5058386;28;20496;-74
2023/08/10 11:22:07;;;;;;;5.22;1.92;;;;;;;;;;5092073;28;20522;-74
2023/08/10 11:24:33;;;;;;;8.73;1.92;;;;;;;;;;5091583;28;20086;-74
2023/08/10 11:26:59;;;;;;;3.80;1.50;;;;;;;;;;5092556;28;20056;-74
2023/08/10 11:29:27;;;;;;;5.85;2.20;;;;;;;;;;5093025;28;20060;-75
2023/08/10 11:31:54;;;;;;;7.10;1.75;;;;;;;;;;5074455;28;20120;-75
2023/08/10 11:34:24;;;;;;;4.47;1.70;;;;;;;;;;5092747;28;20400;-74
2023/08/10 11:36:51;;;;;;;5.53;1.80;;;;;;;;;;5091468;28;20382;-75
2023/08/10 11:39:18;;;;;;;5.43;1.90;;;;;;;;;;5057970;28;20040;-75
2023/08/10 11:41:47;;;;;;;5.00;1.98;;;;;;;;;;5074541;28;20043;-75
2023/08/10 11:44:27;;;;;;;5.50;1.83;;;;;;;;;;5092065;28;20495;-75
2023/08/10 11:46:56;;;;;;;7.15;1.73;;;;;;;;;;5089673;28;20044;-75
2023/08/10 11:49:23;;;;;;;9.23;2.00;;;;;;;;;;5092205;28;20118;-75
2023/08/10 11:51:49;;;;;;;6.32;1.70;;;;;;;;;;5091927;28;20044;-75
2023/08/10 11:54:15;;;;;;;6.57;1.80;;;;;;;;;;5092853;28;20147;-75
2023/08/10 11:56:45;;;;;;;8.80;1.80;;;;;;;;;;5092036;28;20044;-75
2023/08/10 11:59:12;;;;;;;4.82;2.00;;;;;;;;;;5092134;28;20044;-75
2023/08/10 12:01:47;;;;;;;5.22;1.90;;;;;;;;;;5092446;28;20056;-75
2023/08/10 12:04:14;;;;;;;5.50;1.85;;;;;;;;;;5092174;28;20553;-75
2023/08/10 12:06:40;;;;;;;6.22;2.00;;;;;;;;;;5092397;28;20047;-75
2023/08/10 12:09:13;;;;;;;5.97;2.00;;;;;;;;;;5092032;28;20398;-75
2023/08/10 12:11:40;;;;;;;6.22;2.13;;;;;;;;;;5089589;28;20481;-73
2023/08/10 12:14:10;;;;;;;10.90;2.13;;;;;;;;;;5073219;28;20549;-75
2023/08/10 12:16:37;;;;;;;8.50;2.08;;;;;;;;;;5091687;28;20052;-74
2023/08/10 12:19:03;;;;;;;3.53;1.85;;;;;;;;;;5092908;28;20047;-75
2023/08/10 12:21:29;;;;;;;5.55;2.25;;;;;;;;;;5092426;28;20569;-75
2023/08/10 12:23:55;;;;;;;3.92;2.20;;;;;;;;;;5092797;28;20046;-75
2023/08/10 12:26:22;;;;;;;6.90;2.10;;;;;;;;;;5074029;28;20052;-74
2023/08/10 12:28:48;;;;;;;4.57;1.90;;;;;;;;;;5092736;28;20048;-75
2023/08/10 12:31:14;;;;;;;8.55;2.30;;;;;;;;;;5074122;28;20047;-75
2023/08/10 12:33:41;;;;;;;7.85;2.30;;;;;;;;;;5076116;28;20040;-75
2023/08/10 12:36:07;;;;;;;5.72;2.47;;;;;;;;;;5078075;28;20067;-75
2023/08/10 12:38:34;;;;;;;8.73;2.15;;;;;;;;;;5096886;28;20058;-75
2023/08/10 12:41:00;;;;;;;4.63;2.40;;;;;;;;;;5078157;28;20453;-75
2023/08/10 12:43:26;;;;;;;6.68;2.70;;;;;;;;;;5078351;28;20040;-75
2023/08/10 12:45:53;;;;;;;7.70;3.03;;;;;;;;;;5077800;28;20051;-74
2023/08/10 12:48:20;;;;;;;8.10;2.72;;;;;;;;;;5078642;28;20056;-75
2023/08/10 12:50:46;;;;;;;7.75;2.38;;;;;;;;;;5077919;28;20056;-74
2023/08/10 12:53:12;;;;;;;5.43;2.05;;;;;;;;;;5062091;28;20118;-74
2023/08/10 12:55:38;;;;;;;6.03;2.22;;;;;;;;;;5077745;28;20044;-75
2023/08/10 12:58:04;;;;;;;10.38;3.22;;;;;;;;;;5096506;28;20044;-74
2023/08/10 13:00:30;;;;;;;8.18;2.30;;;;;;;;;;5095835;28;20101;-75
2023/08/10 13:02:58;;;;;;;5.43;2.30;;;;;;;;;;5095893;28;20035;-75
2023/08/10 13:05:25;;;;;;;6.45;2.13;;;;;;;;;;5110569;28;20075;-75
2023/08/10 13:07:51;;;;;;;4.75;2.30;;;;;;;;;;5116270;28;20526;-75
2023/08/10 13:10:17;;;;;;;5.28;2.25;;;;;;;;;;5116004;28;20147;-75
2023/08/10 13:12:43;;;;;;;8.43;2.47;;;;;;;;;;5097963;28;20047;-75
2023/08/10 13:15:10;;;;;;;6.53;2.70;;;;;;;;;;5097507;28;20408;-76
2023/08/10 13:17:36;;;;;;;6.32;2.80;;;;;;;;;;5116467;28;20039;-74
2023/08/10 13:20:03;;;;;;;7.97;3.08;;;;;;;;;;5097473;28;20050;-74
2023/08/10 13:22:30;;;;;;;6.82;3.13;;;;;;;;;;5116142;28;20103;-74
2023/08/10 13:24:56;;;;;;;5.53;3.17;;;;;;;;;;5115622;28;20040;-74
2023/08/10 13:27:23;;;;;;;10.88;3.00;;;;;;;;;;5115937;28;20078;-75
2023/08/10 13:29:52;;;;;;;8.50;3.10;;;;;;;;;;5116298;28;20421;-74
2023/08/10 13:32:19;;;;;;;7.28;3.00;;;;;;;;;;5107450;28;20035;-72
2023/08/10 13:34:45;;;;;;;7.18;3.03;;;;;;;;;;5127694;28;20047;-72
2023/08/10 13:37:12;;;;;;;7.50;3.08;;;;;;;;;;5117125;28;20097;-74
2023/08/10 13:39:38;;;;;;;7.88;3.20;;;;;;;;;;5097590;28;20130;-74
2023/08/10 13:42:04;;;;;;;10.25;3.60;;;;;;;;;;5115956;28;20043;-74
2023/08/10 13:44:30;;;;;;;9.45;3.40;;;;;;;;;;5114845;28;20326;-74
2023/08/10 13:46:56;;;;;;;10.43;3.20;;;;;;;;;;5115231;28;20521;-74
2023/08/10 13:49:24;;;;;;;5.93;3.13;;;;;;;;;;5115777;28;20047;-75
2023/08/10 13:51:50;;;;;;;9.20;3.50;;;;;;;;;;5097436;28;20119;-75
2023/08/10 13:54:16;;;;;;;8.30;2.90;;;;;;;;;;5115224;28;20040;-75
2023/08/10 13:57:01;;;;;;;7.40;3.00;;;;;;;;;;5114487;28;20063;-75
2023/08/10 13:59:29;;;;;;;7.82;2.97;;;;;;;;;;5115450;28;20047;-74
2023/08/10 14:01:56;;;;;;;9.27;3.20;;;;;;;;;;5115314;28;20036;-74
2023/08/10 14:04:22;;;;;;;10.70;3.58;;;;;;;;;;5109622;27;20422;-75
2023/08/10 14:06:48;;;;;;;9.82;3.20;;;;;;;;;;5094540;28;20085;-74
2023/08/10 14:09:15;;;;;;;9.48;3.10;;;;;;;;;;5094612;28;20048;-75
2023/08/10 14:11:43;;;;;;;7.20;2.72;;;;;;;;;;5092158;28;20044;-75
2023/08/10 14:14:10;;;;;;;6.97;3.00;;;;;;;;;;5076537;28;20392;-74
2023/08/10 14:16:36;;;;;;;7.63;2.72;;;;;;;;;;5094158;28;20121;-74
2023/08/10 14:19:04;;;;;;;8.75;3.00;;;;;;;;;;5094392;28;20048;-74
2023/08/10 14:21:30;;;;;;;9.40;3.20;;;;;;;;;;5093880;28;20055;-74
2023/08/10 14:23:56;;;;;;;10.50;3.45;;;;;;;;;;5076340;28;20046;-75
2023/08/10 14:26:22;;;;;;;8.85;3.20;;;;;;;;;;5093410;28;20101;-75
2023/08/10 14:28:48;;;;;;;8.93;3.25;;;;;;;;;;5073864;28;20045;-74
2023/08/10 14:31:14;;;;;;;6.30;3.10;;;;;;;;;;5092471;28;20074;-74
2023/08/10 14:33:40;;;;;;;8.63;3.15;;;;;;;;;;5094060;28;20036;-74
2023/08/10 14:36:07;;;;;;;7.30;3.10;;;;;;;;;;5093614;28;20084;-75
2023/08/10 14:38:33;;;;;;;6.07;2.88;;;;;;;;;;5075916;28;20091;-75